Česky Dansk Deutsch English Español Suomi Français Magyar Italiano Nederlands norsk Polski Português svenska Türkçe

 

Het Weer

Usak (Turkije)

13:50, 16 augustus 2016 (GMT)

NWNNE
WE
SWSSE
Home            
Usak Afyon Cardak Suleyman Demirel Akhisar Isparta Eskisehir Aydin Balikesir Bursa Bursa / Yenisehir, Mil-Civ Sivrihisar Izmir / Adnan Menderes Izmir / Cigli Izmir \ Kaklic Bodrum Milas Airport Bandirma Dalaman Topel Tur-Afb Samos Airport Antalya Mytilini Airport Istanbul / Sabiha Gokcen

Om een weerknop op uw website of weblog te plaatsen, copieer onderstaande code en plak die in uw pagina. In het eerste vakje staat HTML-code, in het tweede vakje UBB-code.


Add to Google

Details

Wind speed:2 bf, 6 kn, 3.1 m/s, 6.9 miles/h, 11.1 km/h
Wind direction:ESE, 110° - W, 270°
Visibility:Greater than 10000 m, 10 km, 32800 ft, 6.2 miles
Clouds:CAVOC
Temperature:31°C, 88°F
Gefühlte Temperatur:29°C, 84°F
Dew-point:1°C, 34°F
Atmospheric pressure:1012 hPa, 759.1 mmHg, 29.88 inHg, 0.999 atm
Relative humidity:14.6 %
METAR:LTBO 161350Z 16006KT 110V270 CAVOK 31/01 Q1012

Snelkoppelingen

Actuele weersinformatie van de hele wereld. Voeg locaties toe met het plus (+) symbool. Deze snelkoppelingen kunnen worden toegevoegd aan Google.

Lid van de Technetium groep

website free tracking
StatCounter NetStat W3C Validator

15-08-2022 09:14:06
astro.technetium.be money.technetium.be phote.technetium.be tafeltennistafel.technetium.be www.ligfiets.net